createdAt,value
2023-01-11T00:00:01.357Z,1003.04
2023-01-11T00:01:01.336Z,1003.11
2023-01-11T00:02:01.342Z,1003.01
2023-01-11T00:03:01.301Z,1003.13
2023-01-11T00:04:01.246Z,1003.04
2023-01-11T00:05:01.224Z,1003.10
2023-01-11T00:06:01.190Z,1003.03
2023-01-11T00:07:01.212Z,1003.04
2023-01-11T00:08:01.140Z,1002.87
2023-01-11T00:09:01.154Z,1002.78
2023-01-11T00:10:01.087Z,1002.93
2023-01-11T00:11:01.060Z,1002.99
2023-01-11T00:12:01.037Z,1002.99
2023-01-11T00:13:01.012Z,1002.84
2023-01-11T00:14:00.980Z,1002.87
2023-01-11T00:15:00.958Z,1002.84
2023-01-11T00:16:00.967Z,1002.89
2023-01-11T00:17:00.902Z,1002.95
2023-01-11T00:18:00.870Z,1002.97
2023-01-11T00:19:00.853Z,1002.91
2023-01-11T00:20:00.822Z,1002.83
2023-01-11T00:21:00.800Z,1002.88
2023-01-11T00:22:00.771Z,1002.93
2023-01-11T00:23:00.748Z,1002.94
2023-01-11T00:24:00.737Z,1002.95
2023-01-11T00:25:00.732Z,1002.88
2023-01-11T00:26:00.659Z,1002.81
2023-01-11T00:27:00.644Z,1002.83
2023-01-11T00:28:00.613Z,1002.74
2023-01-11T00:29:00.585Z,1002.82
2023-01-11T00:30:00.621Z,1002.81
2023-01-11T00:31:00.604Z,1002.82
2023-01-11T00:32:00.508Z,1002.78
2023-01-11T00:33:00.483Z,1002.84
2023-01-11T00:34:00.458Z,1002.81
2023-01-11T00:35:00.441Z,1002.79
2023-01-11T00:36:00.411Z,1002.81
2023-01-11T00:37:00.385Z,1002.73
2023-01-11T00:38:00.352Z,1002.77
2023-01-11T00:39:00.331Z,1002.73
2023-01-11T00:40:00.305Z,1002.77
2023-01-11T00:41:00.416Z,1002.70
2023-01-11T00:42:00.247Z,1002.74
2023-01-11T00:43:00.222Z,1002.73
2023-01-11T00:44:00.189Z,1002.73
2023-01-11T00:45:00.173Z,1002.71
2023-01-11T00:46:00.219Z,1002.68
2023-01-11T00:47:00.115Z,1002.59
2023-01-11T00:48:00.105Z,1002.69
2023-01-11T00:49:00.085Z,1002.75
2023-01-11T00:50:00.053Z,1002.61
2023-01-11T00:51:00.013Z,1002.61
2023-01-11T00:51:59.983Z,1002.65
2023-01-11T00:52:59.959Z,1002.60
2023-01-11T00:53:59.929Z,1002.54
2023-01-11T00:54:59.908Z,1002.65
2023-01-11T00:55:59.879Z,1002.66
2023-01-11T00:56:59.879Z,1002.58
2023-01-11T00:57:59.823Z,1002.46
2023-01-11T00:58:59.804Z,1002.56
2023-01-11T00:59:59.770Z,1002.62
2023-01-11T01:00:59.827Z,1002.60
2023-01-11T01:01:59.720Z,1002.54
2023-01-11T01:02:59.717Z,1002.47
2023-01-11T01:03:59.670Z,1002.52
2023-01-11T01:04:59.645Z,1002.54
2023-01-11T01:05:59.624Z,1002.45
2023-01-11T01:06:59.594Z,1002.40
2023-01-11T01:07:59.575Z,1002.50
2023-01-11T01:08:59.539Z,1002.51
2023-01-11T01:09:59.517Z,1002.48
2023-01-11T01:10:59.492Z,1002.42
2023-01-11T01:11:59.493Z,1002.46
2023-01-11T01:12:59.460Z,1002.44
2023-01-11T01:13:59.401Z,1002.54
2023-01-11T01:14:59.380Z,1002.41
2023-01-11T01:15:59.525Z,1002.34
2023-01-11T01:16:59.336Z,1002.49
2023-01-11T01:17:59.300Z,1002.45
2023-01-11T01:18:59.278Z,1002.47
2023-01-11T01:19:59.251Z,1002.42
2023-01-11T01:20:59.229Z,1002.46
2023-01-11T01:21:59.216Z,1002.48
2023-01-11T01:22:59.179Z,1002.51
2023-01-11T01:23:59.146Z,1002.39
2023-01-11T01:24:59.138Z,1002.49
2023-01-11T01:25:59.090Z,1002.46
2023-01-11T01:26:59.087Z,1002.43
2023-01-11T01:27:59.039Z,1002.35
2023-01-11T01:28:59.045Z,1002.35
2023-01-11T01:29:58.997Z,1002.43
2023-01-11T01:30:59.044Z,1002.45
2023-01-11T01:31:58.958Z,1002.47
2023-01-11T01:32:58.913Z,1002.45
2023-01-11T01:33:58.896Z,1002.41
2023-01-11T01:34:58.862Z,1002.38
2023-01-11T01:35:58.833Z,1002.41
2023-01-11T01:36:58.814Z,1002.46
2023-01-11T01:37:58.780Z,1002.43
2023-01-11T01:38:58.752Z,1002.35
2023-01-11T01:39:58.737Z,1002.45
2023-01-11T01:40:58.699Z,1002.40
2023-01-11T01:41:58.684Z,1002.35
2023-01-11T01:42:58.647Z,1002.42
2023-01-11T01:43:58.652Z,1002.26
2023-01-11T01:44:58.644Z,1002.29
2023-01-11T01:45:58.639Z,1002.26
2023-01-11T01:46:58.547Z,1002.18
2023-01-11T01:47:58.526Z,1002.23
2023-01-11T01:48:58.493Z,1002.29
2023-01-11T01:49:58.470Z,1002.27
2023-01-11T01:50:58.442Z,1002.27
2023-01-11T01:51:58.423Z,1002.22
2023-01-11T01:52:58.390Z,1002.24
2023-01-11T01:53:58.374Z,1002.23
2023-01-11T01:54:58.338Z,1002.09
2023-01-11T01:55:58.311Z,1002.09
2023-01-11T01:56:58.287Z,1002.16
2023-01-11T01:57:58.269Z,1002.15
2023-01-11T01:58:58.237Z,1002.13
2023-01-11T01:59:58.214Z,1002.18
2023-01-11T02:00:58.202Z,1002.15
2023-01-11T02:01:58.275Z,1002.12
2023-01-11T02:02:58.171Z,1002.08
2023-01-11T02:03:58.111Z,1002.01
2023-01-11T02:04:58.090Z,1002.05
2023-01-11T02:05:58.065Z,1002.11
2023-01-11T02:06:58.136Z,1002.17
2023-01-11T02:07:58.009Z,1002.18
2023-01-11T02:08:57.974Z,1002.12
2023-01-11T02:09:57.958Z,1002.18
2023-01-11T02:10:57.918Z,1002.20
2023-01-11T02:11:57.896Z,1002.13
2023-01-11T02:12:57.867Z,1002.11
2023-01-11T02:13:57.855Z,1002.13
2023-01-11T02:14:57.812Z,1002.12
2023-01-11T02:15:57.841Z,1002.04
2023-01-11T02:16:57.790Z,1002.10
2023-01-11T02:17:57.744Z,1002.13
2023-01-11T02:18:57.713Z,1002.05
2023-01-11T02:19:57.698Z,1002.04
2023-01-11T02:20:57.659Z,1002.05
2023-01-11T02:21:57.636Z,1002.09
2023-01-11T02:22:57.607Z,1002.05
2023-01-11T02:23:57.586Z,1002.09
2023-01-11T02:24:57.561Z,1002.06
2023-01-11T02:25:57.537Z,1002.05
2023-01-11T02:26:57.508Z,1002.09
2023-01-11T02:27:57.488Z,1002.07
2023-01-11T02:28:57.463Z,1002.08
2023-01-11T02:29:57.430Z,1002.07
2023-01-11T02:30:57.439Z,1002.03
2023-01-11T02:31:57.391Z,1002.04
2023-01-11T02:32:57.385Z,1002.04
2023-01-11T02:33:57.334Z,1002.02
2023-01-11T02:34:57.300Z,1002.00
2023-01-11T02:35:57.283Z,1001.95
2023-01-11T02:36:57.248Z,1001.96
2023-01-11T02:37:57.228Z,1001.88
2023-01-11T02:38:57.193Z,1001.84
2023-01-11T02:39:57.170Z,1001.95
2023-01-11T02:40:57.142Z,1001.91
2023-01-11T02:41:57.120Z,1001.86
2023-01-11T02:42:57.102Z,1001.88
2023-01-11T02:43:57.067Z,1001.89
2023-01-11T02:44:57.060Z,1001.84
2023-01-11T02:45:57.020Z,1001.76
2023-01-11T02:46:56.999Z,1001.83
2023-01-11T02:47:56.996Z,1001.81
2023-01-11T02:48:56.977Z,1001.76
2023-01-11T02:49:56.912Z,1001.66
2023-01-11T02:50:56.886Z,1001.77
2023-01-11T02:51:56.861Z,1001.73
2023-01-11T02:52:56.835Z,1001.65
2023-01-11T02:53:56.810Z,1001.73
2023-01-11T02:54:56.784Z,1001.70
2023-01-11T02:55:56.762Z,1001.71
2023-01-11T02:56:56.729Z,1001.74
2023-01-11T02:57:56.704Z,1001.71
2023-01-11T02:58:56.681Z,1001.69
2023-01-11T02:59:56.656Z,1001.70
2023-01-11T03:00:56.621Z,1001.73
2023-01-11T03:01:56.664Z,1001.76
2023-01-11T03:02:56.598Z,1001.72
2023-01-11T03:03:56.548Z,1001.76
2023-01-11T03:04:56.542Z,1001.75
2023-01-11T03:05:56.518Z,1001.78
2023-01-11T03:06:56.533Z,1001.71
2023-01-11T03:07:56.448Z,1001.72
2023-01-11T03:08:56.425Z,1001.70
2023-01-11T03:09:56.409Z,1001.70
2023-01-11T03:10:56.390Z,1001.66
2023-01-11T03:11:56.343Z,1001.74
2023-01-11T03:12:56.321Z,1001.66
2023-01-11T03:13:56.292Z,1001.72
2023-01-11T03:14:56.272Z,1001.72
2023-01-11T03:15:56.330Z,1001.69
2023-01-11T03:16:56.207Z,1001.62
2023-01-11T03:17:56.189Z,1001.74
2023-01-11T03:18:56.357Z,1001.72
2023-01-11T03:19:56.140Z,1001.67
2023-01-11T03:20:56.125Z,1001.66
2023-01-11T03:21:56.085Z,1001.69
2023-01-11T03:22:56.052Z,1001.63
2023-01-11T03:23:56.034Z,1001.64
2023-01-11T03:24:56.001Z,1001.67
2023-01-11T03:25:55.983Z,1001.71
2023-01-11T03:26:55.951Z,1001.68
2023-01-11T03:27:55.931Z,1001.67
2023-01-11T03:28:55.896Z,1001.59
2023-01-11T03:29:55.876Z,1001.54
2023-01-11T03:30:55.845Z,1001.59
2023-01-11T03:31:55.821Z,1001.60
2023-01-11T03:32:55.793Z,1001.60
2023-01-11T03:33:55.780Z,1001.53
2023-01-11T03:34:55.740Z,1001.55
2023-01-11T03:35:55.717Z,1001.66
2023-01-11T03:36:55.717Z,1001.60
2023-01-11T03:37:55.670Z,1001.64
2023-01-11T03:38:55.645Z,1001.55
2023-01-11T03:39:55.616Z,1001.54
2023-01-11T03:40:55.588Z,1001.61
2023-01-11T03:41:55.566Z,1001.51
2023-01-11T03:42:55.539Z,1001.56
2023-01-11T03:43:55.512Z,1001.58
2023-01-11T03:44:55.484Z,1001.60
2023-01-11T03:45:55.463Z,1001.53
2023-01-11T03:46:55.501Z,1001.56
2023-01-11T03:47:55.413Z,1001.50
2023-01-11T03:48:55.386Z,1001.50
2023-01-11T03:49:55.362Z,1001.61
2023-01-11T03:50:55.327Z,1001.61
2023-01-11T03:51:55.335Z,1001.60
2023-01-11T03:52:55.294Z,1001.50
2023-01-11T03:53:55.253Z,1001.52
2023-01-11T03:54:55.226Z,1001.55
2023-01-11T03:55:55.202Z,1001.53
2023-01-11T03:56:55.170Z,1001.57
2023-01-11T03:57:55.155Z,1001.51
2023-01-11T03:58:55.123Z,1001.48
2023-01-11T03:59:55.112Z,1001.47
2023-01-11T04:00:55.105Z,1001.46
2023-01-11T04:01:55.051Z,1001.50
2023-01-11T04:02:55.016Z,1001.60
2023-01-11T04:03:55.065Z,1001.48
2023-01-11T04:04:54.980Z,1001.49
2023-01-11T04:05:55.001Z,1001.46
2023-01-11T04:06:54.961Z,1001.48
2023-01-11T04:07:54.963Z,1001.46
2023-01-11T04:08:54.896Z,1001.44
2023-01-11T04:09:54.849Z,1001.40
2023-01-11T04:10:54.826Z,1001.38
2023-01-11T04:11:54.791Z,1001.34
2023-01-11T04:12:54.757Z,1001.36
2023-01-11T04:13:54.738Z,1001.36
2023-01-11T04:14:54.708Z,1001.21
2023-01-11T04:15:54.680Z,1001.39
2023-01-11T04:16:54.655Z,1001.39
2023-01-11T04:17:54.632Z,1001.37
2023-01-11T04:18:54.601Z,1001.38
2023-01-11T04:19:54.590Z,1001.37
2023-01-11T04:20:54.546Z,1001.34
2023-01-11T04:21:54.542Z,1001.28
2023-01-11T04:22:54.501Z,1001.27
2023-01-11T04:23:54.478Z,1001.29
2023-01-11T04:24:54.480Z,1001.32
2023-01-11T04:25:54.429Z,1001.34
2023-01-11T04:26:54.403Z,1001.37
2023-01-11T04:27:54.371Z,1001.38
2023-01-11T04:28:54.610Z,1001.45
2023-01-11T04:29:54.338Z,1001.43
2023-01-11T04:30:54.297Z,1001.43
2023-01-11T04:31:54.324Z,1001.41
2023-01-11T04:32:54.278Z,1001.44
2023-01-11T04:33:54.219Z,1001.37
2023-01-11T04:34:54.188Z,1001.28
2023-01-11T04:35:54.176Z,1001.38
2023-01-11T04:36:54.140Z,1001.45
2023-01-11T04:37:54.129Z,1001.47
2023-01-11T04:38:54.084Z,1001.42
2023-01-11T04:39:54.064Z,1001.41
2023-01-11T04:40:54.060Z,1001.40
2023-01-11T04:41:54.014Z,1001.38
2023-01-11T04:42:53.984Z,1001.28
2023-01-11T04:43:53.960Z,1001.36
2023-01-11T04:44:53.935Z,1001.30
2023-01-11T04:45:53.914Z,1001.31
2023-01-11T04:46:53.879Z,1001.35
2023-01-11T04:47:53.861Z,1001.36
2023-01-11T04:48:53.825Z,1001.34
2023-01-11T04:49:53.816Z,1001.31
2023-01-11T04:50:53.787Z,1001.22
2023-01-11T04:51:53.756Z,1001.28
2023-01-11T04:52:53.724Z,1001.30
2023-01-11T04:53:53.700Z,1001.22
2023-01-11T04:54:53.684Z,1001.23
2023-01-11T04:55:53.667Z,1001.25
2023-01-11T04:56:53.675Z,1001.19
2023-01-11T04:57:53.601Z,1001.22
2023-01-11T04:58:53.570Z,1001.39
2023-01-11T04:59:53.546Z,1001.23
2023-01-11T05:00:53.615Z,1001.28
2023-01-11T05:01:53.526Z,1001.30
2023-01-11T05:02:53.469Z,1001.29
2023-01-11T05:03:53.453Z,1001.30
2023-01-11T05:04:53.414Z,1001.32
2023-01-11T05:05:53.392Z,1001.28
2023-01-11T05:06:53.465Z,1001.28
2023-01-11T05:07:53.354Z,1001.26
2023-01-11T05:08:53.318Z,1001.30
2023-01-11T05:09:53.294Z,1001.28
2023-01-11T05:10:53.263Z,1001.27
2023-01-11T05:11:53.244Z,1001.28
2023-01-11T05:12:53.236Z,1001.33
2023-01-11T05:13:53.186Z,1001.27
2023-01-11T05:14:53.163Z,1001.32
2023-01-11T05:15:53.137Z,1001.34
2023-01-11T05:16:53.116Z,1001.33
2023-01-11T05:17:53.095Z,1001.33
2023-01-11T05:18:53.063Z,1001.26
2023-01-11T05:19:53.029Z,1001.31
2023-01-11T05:20:53.005Z,1001.30
2023-01-11T05:21:52.987Z,1001.30
2023-01-11T05:22:52.951Z,1001.28
2023-01-11T05:23:52.940Z,1001.29
2023-01-11T05:24:52.901Z,1001.28
2023-01-11T05:25:52.910Z,1001.27
2023-01-11T05:26:52.857Z,1001.26
2023-01-11T05:27:52.838Z,1001.16
2023-01-11T05:28:52.835Z,1001.21
2023-01-11T05:29:52.776Z,1001.22
2023-01-11T05:30:52.751Z,1001.19
2023-01-11T05:31:52.746Z,1001.23
2023-01-11T05:32:52.703Z,1001.20
2023-01-11T05:33:52.676Z,1001.22
2023-01-11T05:34:52.646Z,1001.26
2023-01-11T05:35:54.501Z,1001.22
2023-01-11T05:36:52.605Z,1001.26
2023-01-11T05:37:52.571Z,1001.24
2023-01-11T05:38:52.548Z,1001.23
2023-01-11T05:39:52.518Z,1001.26
2023-01-11T05:40:52.491Z,1001.25
2023-01-11T05:41:52.485Z,1001.23
2023-01-11T05:42:52.440Z,1001.26
2023-01-11T05:43:52.418Z,1001.24
2023-01-11T05:44:52.410Z,1001.26
2023-01-11T05:45:52.411Z,1001.29
2023-01-11T05:46:52.333Z,1001.25
2023-01-11T05:47:52.317Z,1001.32
2023-01-11T05:48:52.291Z,1001.24
2023-01-11T05:49:52.267Z,1001.24
2023-01-11T05:50:52.241Z,1001.27
2023-01-11T05:51:52.211Z,1001.29
2023-01-11T05:52:52.190Z,1001.31
2023-01-11T05:53:52.157Z,1001.30
2023-01-11T05:54:52.131Z,1001.27
2023-01-11T05:55:52.107Z,1001.26
2023-01-11T05:56:52.078Z,1001.27
2023-01-11T05:57:52.055Z,1001.25
2023-01-11T05:58:52.034Z,1001.28
2023-01-11T05:59:52.009Z,1001.24
2023-01-11T06:00:51.997Z,1001.23
2023-01-11T06:01:51.979Z,1001.21
2023-01-11T06:02:52.085Z,1001.23
2023-01-11T06:03:51.905Z,1001.26
2023-01-11T06:04:51.883Z,1001.25
2023-01-11T06:05:51.843Z,1001.26
2023-01-11T06:06:51.871Z,1001.20
2023-01-11T06:07:51.806Z,1001.27
2023-01-11T06:08:51.775Z,1001.32
2023-01-11T06:09:51.750Z,1001.27
2023-01-11T06:10:51.726Z,1001.33
2023-01-11T06:11:51.705Z,1001.32
2023-01-11T06:12:51.677Z,1001.29
2023-01-11T06:13:51.656Z,1001.28
2023-01-11T06:14:51.618Z,1001.31
2023-01-11T06:15:51.596Z,1001.34
2023-01-11T06:16:51.632Z,1001.34
2023-01-11T06:17:51.543Z,1001.39
2023-01-11T06:18:51.527Z,1001.33
2023-01-11T06:19:51.494Z,1001.42
2023-01-11T06:20:51.540Z,1001.39
2023-01-11T06:21:51.459Z,1001.42
2023-01-11T06:22:51.422Z,1001.45
2023-01-11T06:23:51.389Z,1001.46
2023-01-11T06:24:51.391Z,1001.53
2023-01-11T06:25:51.372Z,1001.49
2023-01-11T06:26:51.315Z,1001.54
2023-01-11T06:27:51.288Z,1001.52
2023-01-11T06:28:51.271Z,1001.54
2023-01-11T06:29:51.294Z,1001.49
2023-01-11T06:30:51.251Z,1001.54
2023-01-11T06:31:51.197Z,1001.52
2023-01-11T06:32:51.183Z,1001.51
2023-01-11T06:33:51.140Z,1001.54
2023-01-11T06:34:51.136Z,1001.54
2023-01-11T06:35:51.087Z,1001.53
2023-01-11T06:36:51.060Z,1001.54
2023-01-11T06:37:51.034Z,1001.52
2023-01-11T06:38:51.024Z,1001.53
2023-01-11T06:39:51.000Z,1001.49
2023-01-11T06:40:50.961Z,1001.44
2023-01-11T06:41:50.939Z,1001.45
2023-01-11T06:42:50.907Z,1001.46
2023-01-11T06:43:50.895Z,1001.44
2023-01-11T06:44:50.867Z,1001.46
2023-01-11T06:45:50.902Z,1001.44
2023-01-11T06:46:50.814Z,1001.43
2023-01-11T06:47:50.781Z,1001.48
2023-01-11T06:48:50.786Z,1001.43
2023-01-11T06:49:50.730Z,1001.51
2023-01-11T06:50:50.702Z,1001.48
2023-01-11T06:51:50.679Z,1001.50
2023-01-11T06:52:50.652Z,1001.50
2023-01-11T06:53:50.625Z,1001.46
2023-01-11T06:54:50.609Z,1001.45
2023-01-11T06:55:50.583Z,1001.43
2023-01-11T06:56:50.553Z,1001.42
2023-01-11T06:57:50.528Z,1001.47
2023-01-11T06:58:50.518Z,1001.47
2023-01-11T06:59:50.475Z,1001.46
2023-01-11T07:00:50.451Z,1001.42
2023-01-11T07:01:50.425Z,1001.45
2023-01-11T07:02:50.397Z,1001.48
2023-01-11T07:03:50.373Z,1001.48
2023-01-11T07:04:50.498Z,1001.46
2023-01-11T07:05:50.334Z,1001.44
2023-01-11T07:06:50.301Z,1001.47
2023-01-11T07:07:50.282Z,1001.56
2023-01-11T07:08:50.248Z,1001.50
2023-01-11T07:09:50.271Z,1001.56
2023-01-11T07:10:50.200Z,1001.50
2023-01-11T07:11:50.180Z,1001.50
2023-01-11T07:12:50.151Z,1001.53
2023-01-11T07:13:50.125Z,1001.58
2023-01-11T07:14:50.093Z,1001.53
2023-01-11T07:15:50.156Z,1001.56
2023-01-11T07:16:50.055Z,1001.55
2023-01-11T07:17:50.027Z,1001.50
2023-01-11T07:18:50.001Z,1001.50
2023-01-11T07:19:49.965Z,1001.50
2023-01-11T07:20:49.958Z,1001.49
2023-01-11T07:21:49.911Z,1001.56
2023-01-11T07:22:49.897Z,1001.56
2023-01-11T07:23:49.864Z,1001.55
2023-01-11T07:24:49.841Z,1001.58
2023-01-11T07:25:50.068Z,1001.59
2023-01-11T07:26:49.787Z,1001.60
2023-01-11T07:27:49.761Z,1001.63
2023-01-11T07:28:49.737Z,1001.65
2023-01-11T07:29:49.713Z,1001.67
2023-01-11T07:30:58.250Z,1001.70
2023-01-11T07:31:49.697Z,1001.70
2023-01-11T07:32:49.638Z,1001.70
2023-01-11T07:33:49.613Z,1001.75
2023-01-11T07:34:49.597Z,1001.76
2023-01-11T07:35:49.561Z,1001.79
2023-01-11T07:36:49.560Z,1001.85
2023-01-11T07:37:49.512Z,1001.86
2023-01-11T07:38:49.487Z,1001.91
2023-01-11T07:39:49.459Z,1001.90
2023-01-11T07:40:49.459Z,1001.91
2023-01-11T07:41:49.409Z,1001.92
2023-01-11T07:42:49.388Z,1001.98
2023-01-11T07:43:49.362Z,1002.00
2023-01-11T07:44:49.337Z,1001.97
2023-01-11T07:45:49.938Z,1001.99
2023-01-11T07:46:49.414Z,1001.97
2023-01-11T07:47:49.256Z,1001.95
2023-01-11T07:48:49.239Z,1001.97
2023-01-11T07:49:49.210Z,1001.97
2023-01-11T07:50:49.228Z,1001.98
2023-01-11T07:51:49.157Z,1001.97
2023-01-11T07:52:49.171Z,1001.98
2023-01-11T07:53:49.104Z,1001.98
2023-01-11T07:54:49.086Z,1001.98
2023-01-11T07:55:49.060Z,1002.03
2023-01-11T07:56:49.033Z,1002.05
2023-01-11T07:57:49.045Z,1002.00
2023-01-11T07:58:48.982Z,1002.00
2023-01-11T07:59:48.970Z,1002.03
2023-01-11T08:00:48.941Z,1002.04
2023-01-11T08:01:48.906Z,1002.06
2023-01-11T08:02:48.942Z,1002.03
2023-01-11T08:03:48.983Z,1002.03
2023-01-11T08:04:48.842Z,1002.02
2023-01-11T08:05:48.815Z,1002.00
2023-01-11T08:06:48.787Z,1001.97
2023-01-11T08:07:48.759Z,1002.00
2023-01-11T08:08:48.759Z,1001.99
2023-01-11T08:09:48.709Z,1002.09
2023-01-11T08:10:48.685Z,1002.10
2023-01-11T08:11:48.652Z,1002.16
2023-01-11T08:12:51.439Z,1002.28
2023-01-11T08:13:48.603Z,1002.30
2023-01-11T08:14:48.577Z,1002.30
2023-01-11T08:15:48.654Z,1002.12
2023-01-11T08:16:48.540Z,1002.17
2023-01-11T08:17:48.547Z,1002.19
2023-01-11T08:18:48.481Z,1002.20
2023-01-11T08:19:48.447Z,1002.10
2023-01-11T08:20:48.438Z,1002.15
2023-01-11T08:21:48.418Z,1002.21
2023-01-11T08:22:48.398Z,1002.18
2023-01-11T08:23:48.369Z,1002.16
2023-01-11T08:24:48.345Z,1002.13
2023-01-11T08:25:48.305Z,1002.15
2023-01-11T08:26:48.311Z,1002.18
2023-01-11T08:27:48.261Z,1002.21
2023-01-11T08:28:48.241Z,1002.19
2023-01-11T08:29:48.200Z,1002.18
2023-01-11T08:30:48.218Z,1002.17
2023-01-11T08:31:48.163Z,1002.15
2023-01-11T08:32:48.138Z,1002.16
2023-01-11T08:33:48.105Z,1002.18
2023-01-11T08:34:48.100Z,1002.20
2023-01-11T08:35:48.054Z,1002.30
2023-01-11T08:36:48.031Z,1002.34
2023-01-11T08:37:48.006Z,1002.27
2023-01-11T08:38:47.985Z,1002.24
2023-01-11T08:39:47.953Z,1002.22
2023-01-11T08:40:47.946Z,1002.23
2023-01-11T08:41:47.906Z,1002.19
2023-01-11T08:42:47.887Z,1002.16
2023-01-11T08:43:47.852Z,1002.17
2023-01-11T08:44:47.835Z,1002.21
2023-01-11T08:45:47.801Z,1002.25
2023-01-11T08:46:47.811Z,1002.31
2023-01-11T08:47:47.758Z,1002.33
2023-01-11T08:48:47.731Z,1002.36
2023-01-11T08:49:47.694Z,1002.37
2023-01-11T08:50:47.681Z,1002.38
2023-01-11T08:51:47.654Z,1002.38
2023-01-11T08:52:47.629Z,1002.36
2023-01-11T08:53:47.602Z,1002.40
2023-01-11T08:54:47.582Z,1002.39
2023-01-11T08:55:47.557Z,1002.36
2023-01-11T08:56:47.559Z,1002.36
2023-01-11T08:57:47.499Z,1002.38
2023-01-11T08:58:47.501Z,1002.41
2023-01-11T08:59:47.457Z,1002.47
2023-01-11T09:00:47.441Z,1002.46
2023-01-11T09:01:47.588Z,1002.45
2023-01-11T09:02:47.425Z,1002.42
2023-01-11T09:03:47.361Z,1002.38
2023-01-11T09:04:47.348Z,1002.37
2023-01-11T09:05:47.311Z,1002.43
2023-01-11T09:06:47.290Z,1002.48
2023-01-11T09:07:47.257Z,1002.48
2023-01-11T09:08:47.232Z,1002.62
2023-01-11T09:09:47.207Z,1002.64
2023-01-11T09:10:47.184Z,1002.70
2023-01-11T09:11:47.152Z,1002.69
2023-01-11T09:12:47.157Z,1002.70
2023-01-11T09:13:47.108Z,1002.79
2023-01-11T09:14:47.086Z,1002.79
2023-01-11T09:15:47.131Z,1002.86
2023-01-11T09:16:47.034Z,1002.88
2023-01-11T09:17:47.013Z,1002.89
2023-01-11T09:18:46.987Z,1002.91
2023-01-11T09:19:46.966Z,1002.94
2023-01-11T09:20:46.940Z,1002.96
2023-01-11T09:21:46.911Z,1002.96
2023-01-11T09:22:46.890Z,1002.99
2023-01-11T09:23:46.855Z,1002.96
2023-01-11T09:24:46.838Z,1002.97
2023-01-11T09:25:46.809Z,1002.94
2023-01-11T09:26:46.889Z,1002.96
2023-01-11T09:27:46.754Z,1002.95
2023-01-11T09:28:46.758Z,1002.97
2023-01-11T09:29:46.716Z,1003.00
2023-01-11T09:30:46.691Z,1003.02
2023-01-11T09:31:46.664Z,1002.92
2023-01-11T09:32:46.645Z,1002.94
2023-01-11T09:33:46.622Z,1002.95
2023-01-11T09:34:46.876Z,1002.95
2023-01-11T09:35:46.887Z,1002.91
2023-01-11T09:36:46.543Z,1002.91
2023-01-11T09:37:46.508Z,1002.92
2023-01-11T09:38:46.488Z,1002.94
2023-01-11T09:39:46.461Z,1002.99
2023-01-11T09:40:46.436Z,1003.00
2023-01-11T09:41:46.435Z,1002.99
2023-01-11T09:42:46.389Z,1003.04
2023-01-11T09:43:46.360Z,1003.06
2023-01-11T09:44:46.377Z,1003.15
2023-01-11T09:45:46.316Z,1003.19
2023-01-11T09:46:46.420Z,1003.22
2023-01-11T09:47:46.267Z,1003.32
2023-01-11T09:48:46.233Z,1003.38
2023-01-11T09:49:46.205Z,1003.44
2023-01-11T09:50:46.186Z,1003.43
2023-01-11T09:51:46.178Z,1003.39
2023-01-11T09:52:46.137Z,1003.47
2023-01-11T09:53:46.103Z,1003.41
2023-01-11T09:54:46.092Z,1003.45
2023-01-11T09:55:46.060Z,1003.46
2023-01-11T09:56:46.041Z,1003.49
2023-01-11T09:57:46.045Z,1003.55
2023-01-11T09:58:45.984Z,1003.58
2023-01-11T09:59:45.965Z,1003.54
2023-01-11T10:00:45.995Z,1003.56
2023-01-11T10:01:45.907Z,1003.55
2023-01-11T10:02:45.890Z,1003.54
2023-01-11T10:03:45.876Z,1003.65
2023-01-11T10:04:45.862Z,1003.60
2023-01-11T10:05:45.810Z,1003.62
2023-01-11T10:06:45.783Z,1003.64
2023-01-11T10:07:45.769Z,1003.58
2023-01-11T10:18:30.322Z,1003.75
2023-01-11T10:18:38.410Z,1003.71
2023-01-11T10:18:38.662Z,1003.71
2023-01-11T10:18:39.201Z,1003.76
2023-01-11T10:19:10.374Z,1003.75
2023-01-11T10:19:45.537Z,1003.77
2023-01-11T10:20:45.432Z,1003.83
2023-01-11T10:21:45.409Z,1003.78
2023-01-11T10:22:45.401Z,1003.76
2023-01-11T10:23:45.405Z,1003.76
2023-01-11T10:24:45.332Z,1003.71
2023-01-11T10:25:45.313Z,1003.74
2023-01-11T10:26:45.357Z,1003.75
2023-01-11T10:27:45.330Z,1003.71
2023-01-11T10:28:45.227Z,1003.71
2023-01-11T10:29:45.211Z,1003.73
2023-01-11T10:30:45.183Z,1003.73
2023-01-11T10:31:45.248Z,1003.74
2023-01-11T10:32:45.148Z,1003.73
2023-01-11T10:33:45.107Z,1003.74
2023-01-11T10:34:45.083Z,1003.76
2023-01-11T10:35:45.073Z,1003.77
2023-01-11T10:36:45.025Z,1003.79
2023-01-11T10:37:45.006Z,1003.85
2023-01-11T10:38:44.980Z,1003.86
2023-01-11T10:39:44.958Z,1003.89
2023-01-11T10:40:44.932Z,1003.87
2023-01-11T10:41:44.904Z,1003.95
2023-01-11T10:42:44.879Z,1003.90
2023-01-11T10:43:44.868Z,1003.92
2023-01-11T10:44:44.838Z,1003.90
2023-01-11T10:45:44.881Z,1003.89
2023-01-11T10:46:44.888Z,1003.86
2023-01-11T10:47:44.772Z,1003.87
2023-01-11T10:48:44.751Z,1003.88
2023-01-11T10:49:44.711Z,1003.86
2023-01-11T10:50:44.679Z,1003.86
2023-01-11T10:51:44.656Z,1003.90
2023-01-11T10:52:44.629Z,1003.86
2023-01-11T10:53:44.617Z,1003.85
2023-01-11T10:54:46.512Z,1003.84
2023-01-11T10:55:44.560Z,1003.84
2023-01-11T10:57:03.183Z,1003.83
2023-01-11T10:58:00.238Z,1003.83
2023-01-11T10:58:44.476Z,1003.85
2023-01-11T10:59:44.458Z,1003.83
2023-01-11T11:00:44.482Z,1003.86
2023-01-11T11:01:44.629Z,1003.86
2023-01-11T11:02:44.385Z,1003.89
2023-01-11T11:03:44.352Z,1003.90
2023-01-11T11:04:44.371Z,1003.90
2023-01-11T11:05:44.305Z,1003.93
2023-01-11T11:06:44.280Z,1003.93
2023-01-11T11:07:44.254Z,1003.92
2023-01-11T11:08:44.229Z,1003.94
2023-01-11T11:09:44.199Z,1004.00
2023-01-11T11:10:44.179Z,1004.03
2023-01-11T11:11:44.164Z,1004.07
2023-01-11T11:12:44.123Z,1004.09
2023-01-11T11:13:44.103Z,1004.09
2023-01-11T11:14:44.078Z,1004.12
2023-01-11T11:15:44.061Z,1004.13
2023-01-11T11:16:44.103Z,1004.10
2023-01-11T11:17:44.006Z,1004.10
2023-01-11T11:18:43.980Z,1004.13
2023-01-11T11:19:43.946Z,1004.06
2023-01-11T11:20:43.982Z,1004.05
2023-01-11T11:21:43.899Z,1004.02
2023-01-11T11:22:43.886Z,1004.02
2023-01-11T11:23:43.854Z,1004.05
2023-01-11T11:24:43.821Z,1004.09
2023-01-11T11:25:43.798Z,1004.12
2023-01-11T11:26:43.817Z,1004.15
2023-01-11T11:27:43.755Z,1004.16
2023-01-11T11:28:43.723Z,1004.16
2023-01-11T11:29:43.717Z,1004.15
2023-01-11T11:30:43.677Z,1004.14
2023-01-11T11:31:43.806Z,1004.15
2023-01-11T11:32:43.631Z,1004.12
2023-01-11T11:33:43.598Z,1004.16
2023-01-11T11:34:43.573Z,1004.15
2023-01-11T11:35:43.551Z,1004.15
2023-01-11T11:36:43.539Z,1004.15
2023-01-11T11:37:43.490Z,1004.17
2023-01-11T11:38:43.474Z,1004.16
2023-01-11T11:39:43.448Z,1004.18
2023-01-11T11:40:43.412Z,1004.20
2023-01-11T11:41:43.397Z,1004.15
2023-01-11T11:42:43.361Z,1004.15
2023-01-11T11:43:43.347Z,1004.16
2023-01-11T11:44:43.329Z,1004.19
2023-01-11T11:45:43.398Z,1004.21
2023-01-11T11:46:43.267Z,1004.26
2023-01-11T11:47:43.249Z,1004.21
2023-01-11T11:48:43.219Z,1004.22
2023-01-11T11:49:43.194Z,1004.26
2023-01-11T11:50:45.400Z,1004.27
2023-01-11T11:51:43.150Z,1004.22
2023-01-11T11:52:43.137Z,1004.27
2023-01-11T11:53:43.130Z,1004.38
2023-01-11T11:54:43.067Z,1004.32
2023-01-11T11:55:43.048Z,1004.33
2023-01-11T11:56:43.013Z,1004.34
2023-01-11T11:57:43.009Z,1004.44
2023-01-11T11:58:42.969Z,1004.44
2023-01-11T11:59:42.944Z,1004.40
2023-01-11T12:00:42.913Z,1004.41
2023-01-11T12:01:42.906Z,1004.41
2023-01-11T12:02:42.864Z,1004.47
2023-01-11T12:03:42.844Z,1004.51
2023-01-11T12:04:42.886Z,1004.53
2023-01-11T12:05:42.789Z,1004.45
2023-01-11T12:06:42.762Z,1004.46
2023-01-11T12:07:53.847Z,1004.55
2023-01-11T12:08:42.744Z,1004.51
2023-01-11T12:09:42.691Z,1004.49
2023-01-11T12:10:42.669Z,1004.49